createdAt,value
2018-08-19T00:00:23.156Z,76.10
2018-08-19T00:03:04.158Z,75.80
2018-08-19T00:05:45.468Z,75.50
2018-08-19T00:08:26.124Z,74.10
2018-08-19T00:11:09.132Z,74.00
2018-08-19T00:13:50.302Z,74.20
2018-08-19T00:16:30.857Z,74.00
2018-08-19T00:19:11.514Z,73.40
2018-08-19T00:21:52.968Z,73.60
2018-08-19T00:24:34.587Z,74.40
2018-08-19T00:27:16.076Z,74.60
2018-08-19T00:29:56.668Z,74.60
2018-08-19T00:32:37.362Z,74.10
2018-08-19T00:35:19.026Z,74.20
2018-08-19T00:38:00.285Z,74.00
2018-08-19T00:40:41.450Z,73.60
2018-08-19T00:43:22.673Z,72.70
2018-08-19T00:46:03.457Z,72.80
2018-08-19T00:48:45.028Z,71.80
2018-08-19T00:51:26.659Z,72.30
2018-08-19T00:54:08.487Z,72.20
2018-08-19T00:56:51.309Z,72.40
2018-08-19T00:59:33.318Z,72.10
2018-08-19T01:02:13.818Z,72.10
2018-08-19T01:04:54.350Z,72.30
2018-08-19T01:07:35.147Z,72.20
2018-08-19T01:10:16.512Z,72.80
2018-08-19T01:12:57.068Z,72.80
2018-08-19T01:15:37.756Z,72.90
2018-08-19T01:18:19.238Z,73.10
2018-08-19T01:21:00.002Z,73.10
2018-08-19T01:23:40.606Z,73.10
2018-08-19T01:26:22.053Z,73.20
2018-08-19T01:29:02.881Z,73.20
2018-08-19T01:31:44.698Z,73.50
2018-08-19T01:34:25.874Z,73.60
2018-08-19T01:37:07.370Z,73.70
2018-08-19T01:39:48.027Z,73.50
2018-08-19T01:42:28.718Z,73.10
2018-08-19T01:45:10.297Z,73.20
2018-08-19T01:47:50.888Z,73.30
2018-08-19T01:50:32.291Z,73.60
2018-08-19T01:53:12.974Z,73.50
2018-08-19T01:55:53.554Z,73.30
2018-08-19T01:58:38.446Z,73.10
2018-08-19T02:01:19.809Z,73.00
2018-08-19T02:04:00.437Z,72.80
2018-08-19T02:06:42.444Z,72.80
2018-08-19T02:09:23.800Z,72.80
2018-08-19T02:12:04.410Z,72.40
2018-08-19T02:14:44.969Z,72.20
2018-08-19T02:17:25.734Z,72.30
2018-08-19T02:20:07.062Z,73.60
2018-08-19T02:22:51.754Z,74.30
2018-08-19T02:25:33.139Z,74.80
2018-08-19T02:28:16.879Z,75.70
2018-08-19T02:31:01.768Z,76.80
2018-08-19T02:33:42.500Z,76.70
2018-08-19T02:36:23.129Z,76.50
2018-08-19T02:39:04.949Z,77.20
2018-08-19T02:41:50.692Z,76.70
2018-08-19T02:44:31.977Z,76.30
2018-08-19T02:47:13.381Z,75.90
2018-08-19T02:49:53.849Z,75.80
2018-08-19T02:52:36.097Z,75.40
2018-08-19T02:55:17.376Z,75.40
2018-08-19T02:58:03.925Z,75.50
2018-08-19T03:00:45.166Z,75.60
2018-08-19T03:03:26.232Z,75.80
2018-08-19T03:06:07.419Z,75.60
2018-08-19T03:08:56.087Z,75.30
2018-08-19T03:11:36.765Z,75.20
2018-08-19T03:14:18.214Z,74.50
2018-08-19T03:16:58.754Z,74.60
2018-08-19T03:19:39.290Z,74.60
2018-08-19T03:22:20.094Z,74.60
2018-08-19T03:25:01.933Z,74.40
2018-08-19T03:27:43.058Z,74.40
2018-08-19T03:30:24.613Z,74.40
2018-08-19T03:33:05.150Z,74.30
2018-08-19T03:35:45.889Z,73.90
2018-08-19T03:38:26.610Z,73.60
2018-08-19T03:41:08.010Z,73.80
2018-08-19T03:43:54.186Z,73.70
2018-08-19T03:46:35.594Z,73.50
2018-08-19T03:49:17.141Z,73.40
2018-08-19T03:51:57.715Z,73.20
2018-08-19T03:54:38.258Z,73.40
2018-08-19T03:57:18.763Z,73.60
2018-08-19T03:59:59.391Z,73.70
2018-08-19T04:02:40.863Z,73.70
2018-08-19T04:05:22.370Z,73.80
2018-08-19T04:08:03.109Z,73.90
2018-08-19T04:10:45.077Z,74.40
2018-08-19T04:13:26.814Z,74.50
2018-08-19T04:16:08.231Z,74.70
2018-08-19T04:18:49.646Z,74.80
2018-08-19T04:21:30.241Z,75.00
2018-08-19T04:24:11.714Z,74.90
2018-08-19T04:26:52.248Z,75.00
2018-08-19T04:29:33.191Z,75.10
2018-08-19T04:32:24.645Z,75.00
2018-08-19T04:35:05.200Z,75.00
2018-08-19T04:37:46.748Z,74.90
2018-08-19T04:40:28.163Z,75.50
2018-08-19T04:43:09.587Z,75.80
2018-08-19T04:45:50.409Z,75.90
2018-08-19T04:48:31.700Z,75.90
2018-08-19T04:51:12.408Z,75.90
2018-08-19T04:53:53.170Z,75.70
2018-08-19T04:56:33.950Z,75.90
2018-08-19T04:59:15.312Z,76.00
2018-08-19T05:01:56.837Z,76.00
2018-08-19T05:04:37.397Z,76.10
2018-08-19T05:07:17.937Z,75.80
2018-08-19T05:09:58.566Z,75.50
2018-08-19T05:12:39.637Z,75.00
2018-08-19T05:15:20.776Z,75.40
2018-08-19T05:18:01.794Z,75.40
2018-08-19T05:20:42.710Z,75.20
2018-08-19T05:23:23.413Z,75.10
2018-08-19T05:26:04.976Z,75.10
2018-08-19T05:28:46.373Z,75.00
2018-08-19T05:31:27.104Z,75.00
2018-08-19T05:34:07.606Z,74.80
2018-08-19T05:36:48.196Z,75.20
2018-08-19T05:39:29.003Z,74.80
2018-08-19T05:42:10.513Z,74.80
2018-08-19T05:44:50.995Z,74.80
2018-08-19T05:47:31.948Z,74.20
2018-08-19T05:50:13.253Z,74.20
2018-08-19T05:52:54.638Z,73.50
2018-08-19T05:55:36.149Z,73.00
2018-08-19T05:58:16.834Z,71.80
2018-08-19T06:01:00.992Z,71.00
2018-08-19T06:03:42.142Z,70.60
2018-08-19T06:06:23.439Z,68.60
2018-08-19T06:09:04.506Z,67.40
2018-08-19T06:11:45.862Z,66.30
2018-08-19T06:14:27.521Z,64.90
2018-08-19T06:17:08.661Z,64.40
2018-08-19T06:19:49.341Z,63.10
2018-08-19T06:22:47.056Z,62.80
2018-08-19T06:25:28.534Z,60.90
2018-08-19T06:28:09.101Z,59.40
2018-08-19T06:30:49.678Z,59.40
2018-08-19T06:33:30.562Z,58.80
2018-08-19T06:36:11.728Z,59.30
2018-08-19T06:38:52.345Z,59.70
2018-08-19T06:41:33.029Z,60.50
2018-08-19T06:44:14.101Z,61.20
2018-08-19T06:46:55.420Z,61.60
2018-08-19T06:49:41.066Z,62.00
2018-08-19T06:52:23.174Z,62.60
2018-08-19T06:55:04.140Z,64.00
2018-08-19T06:57:44.691Z,66.10
2018-08-19T07:00:26.468Z,66.30
2018-08-19T07:03:07.195Z,67.40
2018-08-19T07:05:47.888Z,67.40
2018-08-19T07:08:29.730Z,67.50
2018-08-19T07:11:10.986Z,67.70
2018-08-19T07:13:51.650Z,67.60
2018-08-19T07:16:32.196Z,67.70
2018-08-19T07:19:12.855Z,67.90
2018-08-19T07:21:59.152Z,67.80
2018-08-19T07:24:40.592Z,67.60
2018-08-19T07:27:21.794Z,68.10
2018-08-19T07:30:02.511Z,68.10
2018-08-19T07:32:43.968Z,67.70
2018-08-19T07:35:24.716Z,67.00
2018-08-19T07:38:05.409Z,67.00
2018-08-19T07:40:46.021Z,67.30
2018-08-19T07:43:27.727Z,67.70
2018-08-19T07:46:09.019Z,68.30
2018-08-19T07:48:49.833Z,68.40
2018-08-19T07:51:31.326Z,68.30
2018-08-19T07:54:12.042Z,70.00
2018-08-19T07:56:53.354Z,70.20
2018-08-19T07:59:34.029Z,70.70
2018-08-19T08:02:15.550Z,71.00
2018-08-19T08:04:56.131Z,70.20
2018-08-19T08:07:36.969Z,71.00
2018-08-19T08:10:18.517Z,70.00
2018-08-19T08:13:09.190Z,69.20
2018-08-19T08:15:54.296Z,69.70
2018-08-19T08:18:35.285Z,68.90
2018-08-19T08:21:15.795Z,68.00
2018-08-19T08:23:56.488Z,67.70
2018-08-19T08:26:42.040Z,66.30
2018-08-19T08:29:23.452Z,66.10
2018-08-19T08:32:04.059Z,65.10
2018-08-19T08:34:44.787Z,65.10
2018-08-19T08:37:26.226Z,65.20
2018-08-19T08:40:08.800Z,65.00
2018-08-19T08:42:49.650Z,64.10
2018-08-19T08:45:35.007Z,64.60
2018-08-19T08:48:15.978Z,63.80
2018-08-19T08:50:57.499Z,64.10
2018-08-19T08:53:46.301Z,62.90
2018-08-19T08:56:27.650Z,63.90
2018-08-19T08:59:09.068Z,63.20
2018-08-19T09:01:49.893Z,65.60
2018-08-19T09:04:31.550Z,65.90
2018-08-19T09:07:13.022Z,66.50
2018-08-19T09:09:53.598Z,66.70
2018-08-19T09:12:34.172Z,67.20
2018-08-19T09:15:14.825Z,66.80
2018-08-19T09:17:55.672Z,67.30
2018-08-19T09:20:36.339Z,66.70
2018-08-19T09:23:17.109Z,67.10
2018-08-19T09:25:57.541Z,67.30
2018-08-19T09:28:39.029Z,67.30
2018-08-19T09:31:19.701Z,67.30
2018-08-19T09:34:00.345Z,66.90
2018-08-19T09:36:41.734Z,66.50
2018-08-19T09:39:22.370Z,66.00
2018-08-19T09:42:08.799Z,64.80
2018-08-19T09:44:49.270Z,65.10
2018-08-19T09:47:29.917Z,64.50
2018-08-19T09:50:11.032Z,64.20
2018-08-19T09:52:52.141Z,64.80
2018-08-19T09:55:38.649Z,65.00
2018-08-19T09:58:21.502Z,65.20
2018-08-19T10:01:07.688Z,65.70
2018-08-19T10:03:48.948Z,66.10
2018-08-19T10:06:29.473Z,66.00
2018-08-19T10:09:11.065Z,67.10
2018-08-19T10:11:52.657Z,67.40
2018-08-19T10:14:33.226Z,67.60
2018-08-19T10:17:14.578Z,67.90
2018-08-19T10:19:55.131Z,68.50
2018-08-19T10:22:39.701Z,68.50
2018-08-19T10:25:20.302Z,69.20
2018-08-19T10:28:00.837Z,69.80
2018-08-19T10:30:50.586Z,69.60
2018-08-19T10:33:31.961Z,70.30
2018-08-19T10:36:13.159Z,70.80
2018-08-19T10:38:54.660Z,70.30
2018-08-19T10:41:36.010Z,69.60
2018-08-19T10:44:16.653Z,70.40
2018-08-19T10:46:57.250Z,70.70
2018-08-19T10:49:37.870Z,69.70
2018-08-19T10:52:22.677Z,69.70
2018-08-19T10:55:04.066Z,68.60
2018-08-19T10:57:44.812Z,66.40
2018-08-19T11:00:30.006Z,62.70
2018-08-19T11:03:16.676Z,63.40
2018-08-19T11:05:57.798Z,62.00
2018-08-19T11:08:42.701Z,62.20
2018-08-19T11:11:23.408Z,64.00
2018-08-19T11:14:03.970Z,63.80
2018-08-19T11:16:44.550Z,63.30
2018-08-19T11:19:29.324Z,61.70
2018-08-19T11:22:09.817Z,62.60
2018-08-19T11:24:50.578Z,62.40
2018-08-19T11:27:31.554Z,61.70
2018-08-19T11:30:14.102Z,61.30
2018-08-19T11:32:55.436Z,62.30
2018-08-19T11:35:40.087Z,62.80
2018-08-19T11:38:21.552Z,62.80
2018-08-19T11:41:04.740Z,60.70
2018-08-19T11:43:46.750Z,61.90
2018-08-19T11:46:27.354Z,59.20
2018-08-19T11:49:13.133Z,61.20
2018-08-19T11:51:57.030Z,63.50
2018-08-19T11:54:38.457Z,63.70
2018-08-19T11:57:19.144Z,63.00
2018-08-19T12:00:00.534Z,63.20
2018-08-19T12:02:41.493Z,62.70
2018-08-19T12:05:22.837Z,63.70
2018-08-19T12:08:04.287Z,64.60
2018-08-19T12:10:44.968Z,65.20
2018-08-19T12:13:25.521Z,64.80
2018-08-19T12:16:06.838Z,64.20
2018-08-19T12:18:47.557Z,64.40
2018-08-19T12:21:29.018Z,64.00
2018-08-19T12:24:14.668Z,63.70
2018-08-19T12:26:55.846Z,61.70
2018-08-19T12:29:37.924Z,61.70
2018-08-19T12:32:20.587Z,61.80
2018-08-19T12:35:02.714Z,62.30
2018-08-19T12:37:43.557Z,62.20
2018-08-19T12:40:24.110Z,62.70
2018-08-19T12:43:05.305Z,62.80
2018-08-19T12:45:46.613Z,62.30
2018-08-19T12:48:27.865Z,62.00
2018-08-19T12:51:08.388Z,62.20
2018-08-19T12:53:49.143Z,59.80
2018-08-19T12:56:30.698Z,59.30
2018-08-19T12:59:11.226Z,59.30
2018-08-19T13:01:52.926Z,59.50
2018-08-19T13:04:34.314Z,58.60
2018-08-19T13:07:16.040Z,58.60
2018-08-19T13:09:57.421Z,57.50
2018-08-19T13:12:58.089Z,59.30
2018-08-19T13:15:39.634Z,57.70
2018-08-19T13:18:20.251Z,57.40
2018-08-19T13:21:06.851Z,58.50
2018-08-19T13:23:48.222Z,59.00
2018-08-19T13:26:28.773Z,58.70
2018-08-19T13:29:10.272Z,59.20
2018-08-19T13:31:51.350Z,58.70
2018-08-19T13:34:32.413Z,58.60
2018-08-19T13:37:14.037Z,57.80
2018-08-19T13:39:54.701Z,58.10
2018-08-19T13:42:35.254Z,58.80
2018-08-19T13:45:20.040Z,58.70
2018-08-19T13:48:01.321Z,58.00
2018-08-19T13:50:42.852Z,58.50
2018-08-19T13:53:23.427Z,58.80
2018-08-19T13:56:04.019Z,58.80
2018-08-19T13:58:44.671Z,58.90
2018-08-19T14:01:26.117Z,59.00
2018-08-19T14:04:06.791Z,60.00
2018-08-19T14:06:48.457Z,59.20
2018-08-19T14:09:29.019Z,58.40
2018-08-19T14:12:09.708Z,57.80
2018-08-19T14:14:50.278Z,58.20
2018-08-19T14:17:30.940Z,59.00
2018-08-19T14:20:12.520Z,58.60
2018-08-19T14:22:53.806Z,58.70
2018-08-19T14:25:34.324Z,58.90
2018-08-19T14:28:15.035Z,57.90
2018-08-19T14:30:56.715Z,56.70
2018-08-19T14:33:38.719Z,56.40
2018-08-19T14:36:19.651Z,56.20
2018-08-19T14:39:00.389Z,56.50
2018-08-19T14:41:42.650Z,56.40
2018-08-19T14:44:23.345Z,56.90
2018-08-19T14:47:04.041Z,56.30
2018-08-19T14:49:45.138Z,56.90
2018-08-19T14:52:27.345Z,56.10
2018-08-19T14:55:08.833Z,56.40
2018-08-19T14:57:50.265Z,56.40
2018-08-19T15:00:30.827Z,57.20
2018-08-19T15:03:11.449Z,56.20
2018-08-19T15:05:52.107Z,56.60
2018-08-19T15:08:32.733Z,56.30
2018-08-19T15:11:13.421Z,55.80
2018-08-19T15:13:54.081Z,56.00
2018-08-19T15:16:36.141Z,56.50
2018-08-19T15:19:17.130Z,57.50
2018-08-19T15:21:58.390Z,57.20
2018-08-19T15:24:39.412Z,57.80
2018-08-19T15:27:20.009Z,57.70
2018-08-19T15:30:01.491Z,58.10
2018-08-19T15:32:42.359Z,58.30
2018-08-19T15:35:24.166Z,58.30
2018-08-19T15:38:05.140Z,57.70
2018-08-19T15:40:48.873Z,57.60
2018-08-19T15:43:31.171Z,57.90
2018-08-19T15:46:11.796Z,58.00
2018-08-19T15:48:54.029Z,58.20
2018-08-19T15:51:34.953Z,57.60
2018-08-19T15:54:15.652Z,57.70
2018-08-19T15:56:58.758Z,57.90
2018-08-19T15:59:39.682Z,58.10
2018-08-19T16:02:20.382Z,56.60
2018-08-19T16:05:02.944Z,57.70
2018-08-19T16:07:43.694Z,57.80
2018-08-19T16:10:24.261Z,58.00
2018-08-19T16:13:04.938Z,57.90
2018-08-19T16:15:46.459Z,58.40
2018-08-19T16:18:27.942Z,58.80
2018-08-19T16:21:08.636Z,59.10
2018-08-19T16:23:49.466Z,59.40
2018-08-19T16:26:30.977Z,59.30
2018-08-19T16:29:11.558Z,58.40
2018-08-19T16:31:52.286Z,58.40
2018-08-19T16:34:32.815Z,57.50
2018-08-19T16:37:14.253Z,57.70
2018-08-19T16:39:55.055Z,58.90
2018-08-19T16:42:36.405Z,58.20
2018-08-19T16:45:17.792Z,58.50
2018-08-19T16:47:59.292Z,59.40
2018-08-19T16:50:40.103Z,59.90
2018-08-19T16:53:21.614Z,59.40
2018-08-19T16:56:02.185Z,59.70
2018-08-19T16:58:42.808Z,60.70
2018-08-19T17:01:23.335Z,61.50
2018-08-19T17:04:03.885Z,62.10
2018-08-19T17:06:44.605Z,62.90
2018-08-19T17:09:26.107Z,62.90
2018-08-19T17:12:07.664Z,64.10
2018-08-19T17:14:49.238Z,63.80
2018-08-19T17:17:29.822Z,64.00
2018-08-19T17:20:10.572Z,64.50
2018-08-19T17:22:52.190Z,65.30
2018-08-19T17:25:33.747Z,64.30
2018-08-19T17:28:19.194Z,65.20
2018-08-19T17:31:01.278Z,66.50
2018-08-19T17:33:42.434Z,66.50
2018-08-19T17:36:33.101Z,66.00
2018-08-19T17:39:18.780Z,66.50
2018-08-19T17:42:00.309Z,67.10
2018-08-19T17:44:41.002Z,66.20
2018-08-19T17:47:21.629Z,66.30
2018-08-19T17:50:02.223Z,66.20
2018-08-19T17:52:43.803Z,66.00
2018-08-19T17:55:25.651Z,65.70
2018-08-19T17:58:06.956Z,66.00
2018-08-19T18:00:49.142Z,66.40
2018-08-19T18:03:30.117Z,66.90
2018-08-19T18:06:10.728Z,66.90
2018-08-19T18:08:52.393Z,66.70
2018-08-19T18:11:33.788Z,66.80
2018-08-19T18:14:15.592Z,67.70
2018-08-19T18:16:56.579Z,67.20
2018-08-19T18:19:37.286Z,67.20
2018-08-19T18:22:18.844Z,67.10
2018-08-19T18:25:04.489Z,67.50
2018-08-19T18:27:46.561Z,68.00
2018-08-19T18:30:28.552Z,68.00
2018-08-19T18:33:09.197Z,68.40
2018-08-19T18:35:50.628Z,68.60
2018-08-19T18:38:34.687Z,68.30
2018-08-19T18:41:22.006Z,68.90
2018-08-19T18:44:04.801Z,69.40
2018-08-19T18:46:45.983Z,69.70
2018-08-19T18:49:26.688Z,69.80
2018-08-19T18:52:12.548Z,70.20
2018-08-19T18:54:53.913Z,70.70
2018-08-19T18:57:34.729Z,71.00
2018-08-19T19:00:16.067Z,71.10
2018-08-19T19:02:58.818Z,71.20
2018-08-19T19:05:41.646Z,71.40
2018-08-19T19:08:24.775Z,71.50
2018-08-19T19:11:05.806Z,71.00
2018-08-19T19:13:46.898Z,70.90
2018-08-19T19:16:32.821Z,71.10
2018-08-19T19:19:14.277Z,71.20
2018-08-19T19:22:01.299Z,71.10
2018-08-19T19:24:42.513Z,70.80
2018-08-19T19:27:23.969Z,70.00
2018-08-19T19:30:04.713Z,70.20
2018-08-19T19:32:46.266Z,70.30
2018-08-19T19:35:26.877Z,70.40
2018-08-19T19:38:07.723Z,70.00
2018-08-19T19:40:49.045Z,69.90
2018-08-19T19:43:29.658Z,70.20
2018-08-19T19:46:10.250Z,70.10
2018-08-19T19:48:50.973Z,70.50
2018-08-19T19:51:32.466Z,70.40
2018-08-19T19:54:14.008Z,69.90
2018-08-19T19:56:54.713Z,69.80
2018-08-19T19:59:35.406Z,69.50
2018-08-19T20:02:22.816Z,69.40
2018-08-19T20:05:03.650Z,68.50
2018-08-19T20:07:44.421Z,68.40
2018-08-19T20:10:27.607Z,68.00
2018-08-19T20:13:09.534Z,67.30
2018-08-19T20:15:50.208Z,67.10
2018-08-19T20:18:31.854Z,67.20
2018-08-19T20:21:18.340Z,66.70
2018-08-19T20:24:00.108Z,66.40
2018-08-19T20:26:41.321Z,66.60
2018-08-19T20:29:21.969Z,66.00
2018-08-19T20:32:02.534Z,66.40
2018-08-19T20:34:43.193Z,66.10
2018-08-19T20:37:25.317Z,65.90
2018-08-19T20:40:06.476Z,66.00
2018-08-19T20:42:46.989Z,65.50
2018-08-19T20:45:27.734Z,65.30
2018-08-19T20:48:09.170Z,65.60
2018-08-19T20:50:50.346Z,65.50
2018-08-19T20:53:31.441Z,65.30
2018-08-19T20:56:12.097Z,65.40
2018-08-19T20:58:53.622Z,65.30
2018-08-19T21:01:34.346Z,65.00
2018-08-19T21:04:14.826Z,64.60
2018-08-19T21:06:55.567Z,64.40
2018-08-19T21:09:37.034Z,63.20
2018-08-19T21:12:17.832Z,62.80
2018-08-19T21:14:58.403Z,62.70
2018-08-19T21:17:39.141Z,62.70
2018-08-19T21:20:20.538Z,62.70
2018-08-19T21:23:01.138Z,62.00
2018-08-19T21:25:46.840Z,62.00
2018-08-19T21:28:28.232Z,61.60
2018-08-19T21:31:09.860Z,61.50
2018-08-19T21:33:51.250Z,61.30
2018-08-19T21:36:31.874Z,61.00
2018-08-19T21:39:12.448Z,60.90
2018-08-19T21:41:54.557Z,60.90
2018-08-19T21:44:35.916Z,61.00
2018-08-19T21:47:16.430Z,61.30
2018-08-19T21:49:58.862Z,61.50
2018-08-19T21:52:39.668Z,62.10
2018-08-19T21:55:20.313Z,62.20
2018-08-19T21:58:01.478Z,62.20
2018-08-19T22:00:42.548Z,62.10
2018-08-19T22:03:28.085Z,61.80
2018-08-19T22:06:09.231Z,61.50
2018-08-19T22:08:50.159Z,61.30
2018-08-19T22:11:30.888Z,61.00
2018-08-19T22:14:12.423Z,60.90
2018-08-19T22:16:59.118Z,60.30
2018-08-19T22:19:41.045Z,59.80
2018-08-19T22:22:22.105Z,59.90
2018-08-19T22:25:02.751Z,60.20
2018-08-19T22:27:44.278Z,59.90
2018-08-19T22:30:24.903Z,59.60
2018-08-19T22:33:05.916Z,59.40
2018-08-19T22:35:47.332Z,59.20
2018-08-19T22:38:28.611Z,59.10
2018-08-19T22:41:10.076Z,58.90
2018-08-19T22:43:50.961Z,58.90
2018-08-19T22:46:32.526Z,58.80
2018-08-19T22:49:13.125Z,58.70
2018-08-19T22:51:54.288Z,58.70
2018-08-19T22:54:35.241Z,58.90
2018-08-19T22:57:16.705Z,58.90
2018-08-19T22:59:57.364Z,59.10
2018-08-19T23:02:37.987Z,59.10
2018-08-19T23:05:18.493Z,59.20
2018-08-19T23:07:59.188Z,59.30
2018-08-19T23:10:40.513Z,59.50
2018-08-19T23:13:25.201Z,59.60
2018-08-19T23:16:08.541Z,59.50
2018-08-19T23:18:49.086Z,59.70
2018-08-19T23:21:29.692Z,59.60
2018-08-19T23:24:10.318Z,59.50
2018-08-19T23:26:50.982Z,59.50
2018-08-19T23:29:32.381Z,59.50
2018-08-19T23:32:13.904Z,59.40
2018-08-19T23:34:54.525Z,59.40
2018-08-19T23:37:36.104Z,59.50
2018-08-19T23:40:16.666Z,59.50
2018-08-19T23:42:58.228Z,59.70
2018-08-19T23:45:39.842Z,59.50
2018-08-19T23:48:21.389Z,59.70
2018-08-19T23:51:01.963Z,59.80
2018-08-19T23:53:42.561Z,59.90
2018-08-19T23:56:24.048Z,60.10
2018-08-19T23:59:04.573Z,59.90
